Latest Weather Observations for Mangrove Mountain

IDN60801

Issued at 9:32 pm EDT Monday 30 March 2015 (issued every 30 minutes, with the page automatically refreshed every 10 minutes)

About weather observations | Map of weather stations | Latest weather observations for NSW | Other Formats
Station Details ID: 061375 Name: MANGROVE MOUNTAIN AWS Lat: -33.29 Lon: 151.21 Height: 305.0 m
Data from the previous 72 hours. | See also: Recent months at Mangrove Mountain
Date/Time
EDT
Temp
°C
App
Temp
°C
Dew
Point
Rel
Hum
%
Delta-T
°C
Wind Press
QNH
hPa
Press
MSL
hPa
Rain
since 9 am
mm
Dir
 
Spd
km/h
Gust
km/h
Spd
kts
Gust
kts
30/09:30pm 17.6 17.0 16.6 94 0.6 ENE 15 26 8 14 - - 0.0
30/09:00pm 18.3 20.1 17.5 95 0.5 SSE 4 6 2 3 - - 0.0
30/08:30pm 18.4 20.6 17.4 94 0.6 SE 2 4 1 2 - - 0.0
30/08:00pm 18.5 20.3 17.5 94 0.6 SE 4 6 2 3 - - 0.0
30/07:30pm 18.6 20.5 17.6 94 0.6 SSE 4 6 2 3 - - 0.0
30/07:00pm 18.6 20.7 17.3 92 0.8 SSE 2 4 1 2 - - 0.0
30/06:30pm 18.8 21.3 17.3 91 0.9 CALM 0 4 0 2 - - 0.0
30/06:00pm 19.1 20.3 16.9 87 1.3 ESE 6 9 3 5 - - 0.0
30/05:30pm 19.3 20.2 16.7 85 1.6 ESE 7 13 4 7 - - 0.0
30/05:00pm 19.7 20.7 16.9 84 1.7 E 7 13 4 7 - - 0.0
30/04:30pm 20.1 21.0 16.7 81 2.1 E 7 11 4 6 - - 0.0
30/04:00pm 20.5 21.1 16.7 79 2.3 E 9 19 5 10 - - 0.0
30/03:30pm 21.1 21.4 17.1 78 2.5 ESE 11 20 6 11 - - 0.0
30/03:00pm 21.3 21.6 17.1 77 2.6 E 11 17 6 9 - - 0.0
30/02:30pm 20.7 21.0 16.9 79 2.3 ESE 11 20 6 11 - - 0.0
30/02:00pm 20.9 20.6 16.5 76 2.7 ESE 13 22 7 12 - - 0.0
30/01:30pm 20.8 20.0 17.0 79 2.3 ESE 17 26 9 14 - - 0.0
30/01:00pm 21.1 21.4 16.9 77 2.6 SE 11 20 6 11 - - 0.0
30/12:30pm 22.1 23.4 17.5 75 2.9 SSE 7 11 4 6 - - 0.0
30/12:00pm 21.9 23.8 16.8 73 3.2 SW 2 6 1 3 - - 0.0
30/11:30am 22.1 24.2 18.1 78 2.5 W 4 7 2 4 - - 0.0
30/11:00am 21.2 23.3 18.2 83 1.9 W 4 7 2 4 - - 0.0
30/10:30am 20.3 22.4 18.2 88 1.3 W 4 6 2 3 - - 0.0
30/10:00am 18.8 21.3 18.1 96 0.4 NNW 2 4 1 2 - - 0.0
30/09:30am 17.4 19.5 17.2 99 0.1 NW 2 6 1 3 - - 0.0
30/09:00am 16.9 19.3 16.9 100 0.0 CALM 0 0 0 0 - - 0.0
30/08:30am 16.3 18.0 16.1 99 0.1 ENE 2 4 1 2 - - 0.0
30/08:00am 16.1 17.3 15.9 99 0.1 WNW 4 7 2 4 - - 0.0
30/07:30am 16.1 16.9 15.9 99 0.1 NW 6 9 3 5 - - 0.0
30/07:00am 16.1 16.9 15.8 98 0.2 NW 6 7 3 4 - - 0.0
30/06:30am 16.3 17.5 16.0 98 0.2 NW 4 6 2 3 - - 0.0
30/06:00am 16.4 17.7 16.1 98 0.2 NW 4 6 2 3 - - 0.0
30/05:30am 16.8 18.9 16.3 97 0.3 CALM 0 0 0 0 - - 0.0
30/05:00am 17.0 19.2 16.5 97 0.3 CALM 0 4 0 2 - - 0.0
30/04:30am 16.9 19.1 16.4 97 0.3 CALM 0 4 0 2 - - 0.0
30/04:00am 17.1 19.0 16.6 97 0.3 SSE 2 6 1 3 - - 0.0
30/03:30am 17.1 18.7 16.8 98 0.2 SSE 4 4 2 2 - - 0.0
30/03:00am 16.7 18.7 16.1 96 0.4 CALM 0 0 0 0 - - 0.0
30/02:30am 16.9 19.0 16.3 96 0.4 CALM 0 2 0 1 - - 0.0
30/02:00am 16.8 18.5 16.2 96 0.4 S 2 4 1 2 - - 0.0
30/01:30am 17.0 18.8 16.4 96 0.4 S 2 6 1 3 - - 0.0
30/01:00am 17.0 18.8 16.4 96 0.4 E 2 6 1 3 - - 0.0
30/12:30am 17.0 19.2 16.4 96 0.4 CALM 0 0 0 0 - - 0.0
30/12:00am 16.8 18.7 15.8 94 0.6 CALM 0 0 0 0 - - 0.0
 
Date/Time
EDT
Temp
°C
App
Temp
°C
Dew
Point
Rel
Hum
%
Delta-T
°C
Wind Press
QNH
hPa
Press
MSL
hPa
Rain
since 9 am
mm
Dir
 
Spd
km/h
Gust
km/h
Spd
kts
Gust
kts
29/11:30pm 16.6 18.3 15.3 92 0.8 CALM 0 0 0 0 - - 0.0
29/11:00pm 16.8 18.5 15.3 91 0.9 CALM 0 0 0 0 - - 0.0
29/10:30pm 17.5 19.4 15.7 89 1.1 CALM 0 0 0 0 - - 0.0
29/10:00pm 18.5 19.4 16.7 89 1.1 ENE 7 15 4 8 - - 0.0
29/09:30pm 18.4 18.9 16.6 89 1.1 ENE 9 17 5 9 - - 0.0
29/09:00pm 18.4 18.5 16.4 88 1.2 ENE 11 17 6 9 - - 0.0
29/08:30pm 18.2 18.5 16.0 87 1.3 ENE 9 17 5 9 - - 0.0
29/08:00pm 18.4 18.2 15.8 85 1.6 ENE 11 20 6 11 - - 0.0
29/07:30pm 18.6 18.8 15.7 83 1.7 ENE 9 19 5 10 - - 0.0
29/07:00pm 19.0 18.7 15.5 80 2.1 ENE 11 17 6 9 - - 0.0
29/06:30pm 19.7 19.5 15.8 78 2.4 ENE 11 17 6 9 - - 0.0
29/06:00pm 20.6 21.0 16.2 76 2.7 ENE 9 15 5 8 - - 0.0
29/05:30pm 20.7 20.6 16.1 75 2.8 ENE 11 22 6 12 - - 0.0
29/05:00pm 21.3 21.3 16.3 73 3.1 ENE 11 17 6 9 - - 0.0
29/04:30pm 21.9 21.9 16.2 70 3.5 E 11 20 6 11 - - 0.0
29/04:00pm 24.0 24.1 16.5 63 4.6 E 11 19 6 10 - - 0.0
29/03:30pm 25.1 26.1 14.3 51 6.5 ESE 2 6 1 3 - - 0.0
29/03:00pm 24.3 24.5 12.9 49 6.7 N 4 9 2 5 - - 0.0
29/02:30pm 24.1 24.3 14.2 54 5.9 NE 6 15 3 8 - - 0.0
29/02:00pm 23.9 24.0 14.0 54 5.9 NNE 6 11 3 6 - - 0.0
29/01:30pm 22.3 22.6 14.4 61 4.7 ENE 6 11 3 6 - - 0.0
29/01:00pm 22.0 22.3 14.4 62 4.5 NE 6 9 3 5 - - 0.0
29/12:30pm 22.0 22.3 14.6 63 4.4 N 6 11 3 6 - - 0.0
29/12:00pm 21.7 21.9 14.6 64 4.2 N 7 17 4 9 - - 0.0
29/11:30am 21.2 20.7 14.8 67 3.8 NE 11 19 6 10 - - 0.0
29/11:00am 20.7 20.5 14.8 69 3.5 NNE 9 17 5 9 - - 0.0
29/10:30am 18.9 19.4 15.0 78 2.3 NW 6 7 3 4 - - 0.0
29/10:00am 17.2 17.4 14.7 85 1.5 NW 7 9 4 5 - - 0.0
29/09:30am 16.5 16.8 14.5 88 1.2 NW 6 7 3 4 - - 0.0
29/09:00am 16.0 17.8 15.5 97 0.3 CALM 0 0 0 0 - - 0.0
29/08:30am 14.5 15.8 14.0 97 0.3 CALM 0 0 0 0 - - 0.0
29/08:00am 13.7 14.7 13.2 97 0.3 CALM 0 0 0 0 - - 0.0
29/07:30am 13.4 14.3 12.9 97 0.3 CALM 0 0 0 0 - - 0.0
29/07:00am 13.0 13.8 12.4 96 0.3 CALM 0 0 0 0 - - 0.0
29/06:30am 13.0 13.7 12.2 95 0.4 CALM 0 0 0 0 - - 0.0
29/06:00am 13.3 14.1 12.7 96 0.3 CALM 0 0 0 0 - - 0.0
29/05:30am 13.2 14.0 12.4 95 0.4 CALM 0 0 0 0 - - 0.0
29/05:00am 13.6 14.5 13.0 96 0.3 CALM 0 0 0 0 - - 0.0
29/04:30am 13.8 14.9 13.6 99 0.1 CALM 0 0 0 0 - - 0.0
29/04:00am 13.6 14.7 13.4 99 0.1 CALM 0 0 0 0 - - 0.0
29/03:30am 12.6 13.3 12.1 97 0.3 CALM 0 0 0 0 - - 0.0
29/03:00am 12.1 12.6 11.6 97 0.3 CALM 0 0 0 0 - - 0.0
29/02:30am 12.1 12.6 11.5 96 0.3 CALM 0 0 0 0 - - 0.0
29/02:00am 11.9 12.3 11.1 95 0.4 CALM 0 0 0 0 - - 0.0
29/01:30am 12.0 12.4 11.1 94 0.5 CALM 0 0 0 0 - - 0.0
29/01:00am 12.2 12.6 11.3 94 0.5 CALM 0 0 0 0 - - 0.0
29/12:30am 12.4 12.9 11.5 94 0.5 CALM 0 0 0 0 - - 0.0
29/12:00am 12.6 13.1 11.7 94 0.5 CALM 0 0 0 0 - - 0.0
 
Date/Time
EDT
Temp
°C
App
Temp
°C
Dew
Point
Rel
Hum
%
Delta-T
°C
Wind Press
QNH
hPa
Press
MSL
hPa
Rain
since 9 am
mm
Dir
 
Spd
km/h
Gust
km/h
Spd
kts
Gust
kts
28/11:30pm 12.6 13.1 11.7 94 0.5 CALM 0 0 0 0 - - 0.0
28/11:00pm 12.6 13.1 11.7 94 0.5 CALM 0 0 0 0 - - 0.0
28/10:30pm 12.7 13.2 11.6 93 0.6 CALM 0 0 0 0 - - 0.0
28/10:00pm 12.9 13.1 11.8 93 0.6 ESE 2 2 1 1 - - 0.0
28/09:30pm 13.1 13.3 11.8 92 0.7 ESE 2 4 1 2 - - 0.0
28/09:00pm 13.2 13.3 11.6 90 0.9 ESE 2 4 1 2 - - 0.0
28/08:30pm 13.7 13.8 11.6 87 1.1 ESE 2 2 1 1 - - 0.0
28/08:00pm 14.6 14.9 12.1 85 1.4 ESE 2 4 1 2 - - 0.0
28/07:30pm 15.5 15.5 12.3 81 1.8 ESE 4 7 2 4 - - 0.0
28/07:00pm 16.4 16.0 12.4 77 2.2 ESE 6 11 3 6 - - 0.0
28/06:30pm 17.6 16.7 12.5 72 2.9 E 9 17 5 9 - - 0.0
28/06:00pm 18.8 17.9 12.5 67 3.6 ESE 9 19 5 10 - - 0.0
28/05:30pm 19.2 17.8 12.2 64 4.0 ESE 11 22 6 12 - - 0.0
28/05:00pm 20.0 18.3 12.5 62 4.3 E 13 20 7 11 - - 0.0
28/04:30pm 19.1 17.5 11.7 62 4.1 ESE 11 17 6 9 - - 0.0
28/04:00pm 21.5 20.4 12.1 55 5.4 ESE 9 17 5 9 - - 0.0
28/03:30pm 20.8 19.9 12.5 59 4.7 E 9 13 5 7 - - 0.0
28/03:00pm 19.9 18.6 11.4 58 4.7 SE 9 15 5 8 - - 0.0
28/02:30pm 21.0 19.9 9.9 49 6.1 SSE 6 11 3 6 - - 0.0
28/02:00pm 22.4 22.0 11.2 49 6.3 E 4 7 2 4 - - 0.0
28/01:30pm 22.0 21.1 10.8 49 6.3 NNE 6 11 3 6 - - 0.0
28/01:00pm 21.1 19.9 9.7 48 6.2 ESE 6 9 3 5 - - 0.0
28/12:30pm 21.2 20.4 11.0 52 5.7 ESE 6 9 3 5 - - 0.0
28/12:00pm 20.1 19.0 9.9 52 5.5 SSE 6 11 3 6 - - 0.0
28/11:30am 20.0 18.9 10.1 53 5.4 S 6 9 3 5 - - 0.0
28/11:00am 19.1 17.7 8.7 51 5.5 SSW 6 11 3 6 - - 0.0
28/10:30am 18.2 16.2 7.3 49 5.6 SW 7 15 4 8 - - 0.0
28/10:00am 18.0 16.4 8.0 52 5.2 SW 6 11 3 6 - - 0.0
28/09:30am 16.9 15.3 7.8 55 4.7 W 6 9 3 5 - - 0.0
28/09:00am 15.4 14.0 7.4 59 4.0 WSW 4 6 2 3 - - 0.0
28/08:30am 13.9 13.1 8.1 68 2.9 NNW 2 6 1 3 - - 0.0
28/08:00am 11.9 10.6 7.8 76 2.0 WNW 4 6 2 3 - - 0.0
28/07:30am 8.8 8.2 7.4 91 0.7 CALM 0 0 0 0 - - 0.0
28/07:00am 8.8 8.0 6.6 86 1.0 CALM 0 0 0 0 - - 0.0
28/06:30am 8.6 7.9 7.1 90 0.7 CALM 0 0 0 0 - - 0.0
28/06:00am 8.5 7.8 7.0 90 0.7 CALM 0 0 0 0 - - 0.0
28/05:30am 8.7 8.0 6.8 88 0.9 CALM 0 0 0 0 - - 0.0
28/05:00am 9.1 8.5 7.4 89 0.8 CALM 0 0 0 0 - - 0.0
28/04:30am 9.2 8.6 7.3 88 0.9 CALM 0 0 0 0 - - 0.0
28/04:00am 9.3 8.7 7.3 87 1.0 CALM 0 0 0 0 - - 0.0
28/03:30am 9.4 8.4 7.3 87 1.0 WNW 2 4 1 2 - - 0.0
28/03:00am 9.7 9.1 7.3 85 1.2 CALM 0 0 0 0 - - 0.0
28/02:30am 10.0 9.3 7.1 82 1.4 CALM 0 4 0 2 - - 0.0
28/02:00am 10.6 9.8 6.7 77 1.9 CALM 0 0 0 0 - - 0.0
28/01:30am 12.0 11.4 7.3 73 2.3 CALM 0 0 0 0 - - 0.0
28/01:00am 12.9 11.9 5.6 61 3.5 CALM 0 0 0 0 - - 0.0
28/12:30am 14.4 13.0 5.7 56 4.2 SW 2 6 1 3 - - 0.0
28/12:00am 15.6 13.5 5.8 52 4.8 SW 6 11 3 6 - - 0.0
 
Date/Time
EDT
Temp
°C
App
Temp
°C
Dew
Point
Rel
Hum
%
Delta-T
°C
Wind Press
QNH
hPa
Press
MSL
hPa
Rain
since 9 am
mm
Dir
 
Spd
km/h
Gust
km/h
Spd
kts
Gust
kts
27/11:30pm 15.5 14.0 6.8 56 4.3 SW 4 9 2 5 - - 0.0
27/11:00pm 15.8 14.6 8.1 60 3.9 SSW 4 9 2 5 - - 0.0
27/10:30pm 14.4 13.3 8.4 67 3.1 SSW 4 6 2 3 - - 0.0
27/10:00pm 14.6 13.2 7.4 62 3.6 WSW 4 7 2 4 - - 0.0

Other Formats:

Comma delimited format used in spreadsheet applications
http://www.bom.gov.au/fwo/IDN60801/IDN60801.95774.axf

JavaScript Object Notation format (JSON) in row-major order
http://www.bom.gov.au/fwo/IDN60801/IDN60801.95774.json